Dobbin, Texas
Current Conditions -  °F | °C
As of 7:53 PM on Friday 28 Nov 2014 (Local Time) from KCXO Reporting Station
Clear Clear  
Wind Chill: 58°   Ceiling: Unl
Heat Index: 58°   Visibility: 10mi
Dew Point: 54°   Wind: 7mph
Humidity: 87%   Direction: 150°SSE
Pressure: 30.16"   Gusts: NA
Location:  30.37°N, 95.78°W
Report Text: KCXO 290153Z 15006KT 10SM CLR 14/12 A3016 RMK AO2 SLP211 T01440122
Loading
Personal Weather Stations






























Interactive Weather Map New forecast layout! Learn more

10-Day Weather Forecast

Advertisements
Track Severe Weather on mobile